sensor_id;sensor_type;location;lat;lon;timestamp;P1;durP1;ratioP1;P2;durP2;ratioP2
68097;SDS011;54886;47.036;15.466;2023-02-08T00:02:06;34.17;;;15.40;;
68097;SDS011;54886;47.036;15.466;2023-02-08T00:04:31;32.92;;;15.48;;
68097;SDS011;54886;47.036;15.466;2023-02-08T00:06:56;30.38;;;15.80;;
68097;SDS011;54886;47.036;15.466;2023-02-08T00:09:22;26.98;;;14.70;;
68097;SDS011;54886;47.036;15.466;2023-02-08T00:11:47;26.73;;;13.93;;
68097;SDS011;54886;47.036;15.466;2023-02-08T00:14:13;31.25;;;15.98;;
68097;SDS011;54886;47.036;15.466;2023-02-08T00:16:38;27.65;;;14.18;;
68097;SDS011;54886;47.036;15.466;2023-02-08T00:19:03;28.63;;;14.88;;
68097;SDS011;54886;47.036;15.466;2023-02-08T00:21:29;28.83;;;14.05;;
68097;SDS011;54886;47.036;15.466;2023-02-08T00:23:54;31.33;;;15.80;;
68097;SDS011;54886;47.036;15.466;2023-02-08T00:26:20;31.08;;;16.13;;
68097;SDS011;54886;47.036;15.466;2023-02-08T00:28:46;29.77;;;14.55;;
68097;SDS011;54886;47.036;15.466;2023-02-08T00:31:11;27.60;;;14.77;;
68097;SDS011;54886;47.036;15.466;2023-02-08T00:33:36;32.22;;;15.55;;
68097;SDS011;54886;47.036;15.466;2023-02-08T00:36:03;29.80;;;15.30;;
68097;SDS011;54886;47.036;15.466;2023-02-08T00:38:32;29.92;;;15.10;;
68097;SDS011;54886;47.036;15.466;2023-02-08T00:40:58;28.08;;;13.60;;
68097;SDS011;54886;47.036;15.466;2023-02-08T00:43:23;30.65;;;14.85;;
68097;SDS011;54886;47.036;15.466;2023-02-08T00:45:53;30.52;;;15.27;;
68097;SDS011;54886;47.036;15.466;2023-02-08T00:48:19;32.40;;;15.57;;
68097;SDS011;54886;47.036;15.466;2023-02-08T00:50:44;37.10;;;15.95;;
68097;SDS011;54886;47.036;15.466;2023-02-08T00:53:23;30.35;;;15.40;;
68097;SDS011;54886;47.036;15.466;2023-02-08T00:55:53;35.10;;;16.10;;
68097;SDS011;54886;47.036;15.466;2023-02-08T00:58:19;30.25;;;15.38;;
68097;SDS011;54886;47.036;15.466;2023-02-08T01:00:44;30.92;;;15.55;;
68097;SDS011;54886;47.036;15.466;2023-02-08T01:03:12;34.33;;;15.57;;
68097;SDS011;54886;47.036;15.466;2023-02-08T01:05:38;35.50;;;15.35;;
68097;SDS011;54886;47.036;15.466;2023-02-08T01:08:03;31.73;;;14.40;;
68097;SDS011;54886;47.036;15.466;2023-02-08T01:10:29;27.40;;;14.15;;
68097;SDS011;54886;47.036;15.466;2023-02-08T01:12:55;30.20;;;14.90;;
68097;SDS011;54886;47.036;15.466;2023-02-08T01:15:22;32.25;;;15.77;;
68097;SDS011;54886;47.036;15.466;2023-02-08T01:17:53;28.05;;;15.30;;
68097;SDS011;54886;47.036;15.466;2023-02-08T01:20:19;25.58;;;14.32;;
68097;SDS011;54886;47.036;15.466;2023-02-08T01:22:45;27.98;;;14.98;;
68097;SDS011;54886;47.036;15.466;2023-02-08T01:25:13;27.67;;;14.27;;
68097;SDS011;54886;47.036;15.466;2023-02-08T01:27:39;32.83;;;15.13;;
68097;SDS011;54886;47.036;15.466;2023-02-08T01:30:04;33.95;;;14.73;;
68097;SDS011;54886;47.036;15.466;2023-02-08T01:32:30;32.22;;;14.73;;
68097;SDS011;54886;47.036;15.466;2023-02-08T01:34:56;29.58;;;14.38;;
68097;SDS011;54886;47.036;15.466;2023-02-08T01:37:21;28.30;;;14.52;;
68097;SDS011;54886;47.036;15.466;2023-02-08T01:39:46;33.90;;;15.32;;
68097;SDS011;54886;47.036;15.466;2023-02-08T01:42:16;26.48;;;12.30;;
68097;SDS011;54886;47.036;15.466;2023-02-08T01:47:37;29.95;;;14.00;;
68097;SDS011;54886;47.036;15.466;2023-02-08T01:50:03;27.33;;;13.80;;
68097;SDS011;54886;47.036;15.466;2023-02-08T01:52:28;34.97;;;15.40;;
68097;SDS011;54886;47.036;15.466;2023-02-08T01:55:18;30.00;;;15.57;;
68097;SDS011;54886;47.036;15.466;2023-02-08T01:57:43;34.45;;;14.85;;
68097;SDS011;54886;47.036;15.466;2023-02-08T02:00:14;32.00;;;15.38;;
68097;SDS011;54886;47.036;15.466;2023-02-08T02:02:42;32.55;;;15.32;;
68097;SDS011;54886;47.036;15.466;2023-02-08T02:05:10;31.05;;;15.50;;
68097;SDS011;54886;47.036;15.466;2023-02-08T02:07:36;34.92;;;16.65;;
68097;SDS011;54886;47.036;15.466;2023-02-08T02:12:29;24.75;;;14.27;;
68097;SDS011;54886;47.036;15.466;2023-02-08T02:14:56;28.70;;;13.93;;
68097;SDS011;54886;47.036;15.466;2023-02-08T02:17:22;30.33;;;14.75;;
68097;SDS011;54886;47.036;15.466;2023-02-08T02:27:45;34.17;;;14.60;;
68097;SDS011;54886;47.036;15.466;2023-02-08T02:53:00;26.58;;;12.00;;
68097;SDS011;54886;47.036;15.466;2023-02-08T02:55:35;19.08;;;10.77;;
68097;SDS011;54886;47.036;15.466;2023-02-08T02:58:06;27.48;;;12.30;;
68097;SDS011;54886;47.036;15.466;2023-02-08T03:00:34;27.42;;;12.68;;
68097;SDS011;54886;47.036;15.466;2023-02-08T03:03:01;23.05;;;11.68;;
68097;SDS011;54886;47.036;15.466;2023-02-08T03:05:26;22.20;;;10.88;;
68097;SDS011;54886;47.036;15.466;2023-02-08T03:16:25;23.23;;;11.35;;
68097;SDS011;54886;47.036;15.466;2023-02-08T03:19:05;24.23;;;11.68;;
68097;SDS011;54886;47.036;15.466;2023-02-08T03:29:29;29.67;;;12.10;;
68097;SDS011;54886;47.036;15.466;2023-02-08T03:32:17;25.15;;;12.05;;
68097;SDS011;54886;47.036;15.466;2023-02-08T03:40:29;26.02;;;12.55;;
68097;SDS011;54886;47.036;15.466;2023-02-08T03:43:00;23.25;;;11.52;;
68097;SDS011;54886;47.036;15.466;2023-02-08T03:45:30;25.73;;;11.88;;
68097;SDS011;54886;47.036;15.466;2023-02-08T03:48:01;24.27;;;11.80;;
68097;SDS011;54886;47.036;15.466;2023-02-08T03:50:30;27.95;;;12.23;;
68097;SDS011;54886;47.036;15.466;2023-02-08T03:52:59;24.33;;;11.65;;
68097;SDS011;54886;47.036;15.466;2023-02-08T03:55:26;24.02;;;11.32;;
68097;SDS011;54886;47.036;15.466;2023-02-08T03:57:56;23.45;;;11.85;;
68097;SDS011;54886;47.036;15.466;2023-02-08T04:00:25;26.98;;;11.88;;
68097;SDS011;54886;47.036;15.466;2023-02-08T04:03:04;25.67;;;13.20;;
68097;SDS011;54886;47.036;15.466;2023-02-08T04:05:34;24.33;;;11.65;;
68097;SDS011;54886;47.036;15.466;2023-02-08T04:08:00;27.48;;;13.13;;
68097;SDS011;54886;47.036;15.466;2023-02-08T04:10:26;22.48;;;10.85;;
68097;SDS011;54886;47.036;15.466;2023-02-08T04:12:51;23.52;;;11.35;;
68097;SDS011;54886;47.036;15.466;2023-02-08T04:15:17;25.90;;;12.77;;
68097;SDS011;54886;47.036;15.466;2023-02-08T04:17:42;27.13;;;13.15;;
68097;SDS011;54886;47.036;15.466;2023-02-08T04:20:08;21.88;;;10.77;;
68097;SDS011;54886;47.036;15.466;2023-02-08T04:22:34;25.17;;;11.43;;
68097;SDS011;54886;47.036;15.466;2023-02-08T04:24:59;33.35;;;13.90;;
68097;SDS011;54886;47.036;15.466;2023-02-08T04:27:25;25.33;;;13.40;;
68097;SDS011;54886;47.036;15.466;2023-02-08T04:29:50;23.83;;;11.88;;
68097;SDS011;54886;47.036;15.466;2023-02-08T04:32:18;23.92;;;12.45;;
68097;SDS011;54886;47.036;15.466;2023-02-08T04:34:43;27.85;;;12.15;;
68097;SDS011;54886;47.036;15.466;2023-02-08T04:37:09;29.02;;;12.52;;
68097;SDS011;54886;47.036;15.466;2023-02-08T04:39:35;25.77;;;12.23;;
68097;SDS011;54886;47.036;15.466;2023-02-08T04:42:00;21.40;;;11.75;;
68097;SDS011;54886;47.036;15.466;2023-02-08T04:44:25;22.70;;;10.98;;
68097;SDS011;54886;47.036;15.466;2023-02-08T04:46:51;26.17;;;11.75;;
68097;SDS011;54886;47.036;15.466;2023-02-08T04:49:17;31.63;;;12.57;;
68097;SDS011;54886;47.036;15.466;2023-02-08T04:51:42;31.77;;;13.00;;
68097;SDS011;54886;47.036;15.466;2023-02-08T04:54:07;24.45;;;10.85;;
68097;SDS011;54886;47.036;15.466;2023-02-08T04:56:33;23.25;;;10.60;;
68097;SDS011;54886;47.036;15.466;2023-02-08T04:58:59;23.58;;;11.10;;
68097;SDS011;54886;47.036;15.466;2023-02-08T05:01:25;24.40;;;11.02;;
68097;SDS011;54886;47.036;15.466;2023-02-08T05:03:50;20.00;;;10.63;;
68097;SDS011;54886;47.036;15.466;2023-02-08T05:06:18;26.02;;;11.25;;
68097;SDS011;54886;47.036;15.466;2023-02-08T05:08:43;18.25;;;9.55;;
68097;SDS011;54886;47.036;15.466;2023-02-08T05:11:11;25.85;;;9.40;;
68097;SDS011;54886;47.036;15.466;2023-02-08T05:13:37;18.45;;;8.85;;
68097;SDS011;54886;47.036;15.466;2023-02-08T05:16:02;22.27;;;9.55;;
68097;SDS011;54886;47.036;15.466;2023-02-08T05:18:28;14.52;;;7.03;;
68097;SDS011;54886;47.036;15.466;2023-02-08T05:20:57;14.95;;;7.85;;
68097;SDS011;54886;47.036;15.466;2023-02-08T05:23:24;15.20;;;7.47;;
68097;SDS011;54886;47.036;15.466;2023-02-08T05:25:51;15.95;;;7.60;;
68097;SDS011;54886;47.036;15.466;2023-02-08T05:28:16;18.75;;;7.20;;
68097;SDS011;54886;47.036;15.466;2023-02-08T05:30:42;18.20;;;8.48;;
68097;SDS011;54886;47.036;15.466;2023-02-08T05:33:08;20.08;;;8.27;;
68097;SDS011;54886;47.036;15.466;2023-02-08T05:35:33;15.48;;;8.52;;
68097;SDS011;54886;47.036;15.466;2023-02-08T05:37:59;19.45;;;10.35;;
68097;SDS011;54886;47.036;15.466;2023-02-08T05:40:24;19.60;;;11.15;;
68097;SDS011;54886;47.036;15.466;2023-02-08T05:42:52;27.02;;;11.88;;
68097;SDS011;54886;47.036;15.466;2023-02-08T05:45:17;18.92;;;11.20;;
68097;SDS011;54886;47.036;15.466;2023-02-08T05:47:44;21.35;;;11.48;;
68097;SDS011;54886;47.036;15.466;2023-02-08T05:50:11;23.17;;;10.67;;
68097;SDS011;54886;47.036;15.466;2023-02-08T05:52:37;17.30;;;9.05;;
68097;SDS011;54886;47.036;15.466;2023-02-08T05:55:03;20.50;;;10.35;;
68097;SDS011;54886;47.036;15.466;2023-02-08T05:57:28;20.92;;;11.00;;
68097;SDS011;54886;47.036;15.466;2023-02-08T05:59:53;18.55;;;9.35;;
68097;SDS011;54886;47.036;15.466;2023-02-08T06:02:19;21.65;;;9.80;;
68097;SDS011;54886;47.036;15.466;2023-02-08T06:04:47;24.58;;;9.73;;
68097;SDS011;54886;47.036;15.466;2023-02-08T06:07:12;20.38;;;10.07;;
68097;SDS011;54886;47.036;15.466;2023-02-08T06:09:38;20.42;;;9.15;;
68097;SDS011;54886;47.036;15.466;2023-02-08T06:12:03;17.30;;;8.75;;
68097;SDS011;54886;47.036;15.466;2023-02-08T06:14:29;19.40;;;9.63;;
68097;SDS011;54886;47.036;15.466;2023-02-08T06:16:54;20.92;;;10.77;;
68097;SDS011;54886;47.036;15.466;2023-02-08T06:19:20;18.73;;;9.05;;
68097;SDS011;54886;47.036;15.466;2023-02-08T06:21:45;23.45;;;10.68;;
68097;SDS011;54886;47.036;15.466;2023-02-08T06:24:11;20.98;;;10.27;;
68097;SDS011;54886;47.036;15.466;2023-02-08T06:26:37;20.63;;;9.98;;
68097;SDS011;54886;47.036;15.466;2023-02-08T06:29:03;23.73;;;11.43;;
68097;SDS011;54886;47.036;15.466;2023-02-08T06:31:29;22.17;;;11.88;;
68097;SDS011;54886;47.036;15.466;2023-02-08T06:33:57;24.85;;;10.55;;
68097;SDS011;54886;47.036;15.466;2023-02-08T06:36:22;21.35;;;10.88;;
68097;SDS011;54886;47.036;15.466;2023-02-08T06:38:47;27.35;;;11.68;;
68097;SDS011;54886;47.036;15.466;2023-02-08T06:41:13;25.05;;;11.95;;
68097;SDS011;54886;47.036;15.466;2023-02-08T06:43:38;27.25;;;12.15;;
68097;SDS011;54886;47.036;15.466;2023-02-08T06:46:04;32.95;;;11.52;;
68097;SDS011;54886;47.036;15.466;2023-02-08T06:48:32;28.65;;;12.05;;
68097;SDS011;54886;47.036;15.466;2023-02-08T06:53:26;19.73;;;10.02;;
68097;SDS011;54886;47.036;15.466;2023-02-08T06:55:51;24.33;;;11.40;;
68097;SDS011;54886;47.036;15.466;2023-02-08T06:58:17;22.73;;;11.73;;
68097;SDS011;54886;47.036;15.466;2023-02-08T07:00:43;24.63;;;10.40;;
68097;SDS011;54886;47.036;15.466;2023-02-08T07:03:12;27.00;;;12.23;;
68097;SDS011;54886;47.036;15.466;2023-02-08T07:05:41;26.20;;;10.95;;
68097;SDS011;54886;47.036;15.466;2023-02-08T07:08:07;21.60;;;10.52;;
68097;SDS011;54886;47.036;15.466;2023-02-08T07:10:32;22.52;;;11.38;;
68097;SDS011;54886;47.036;15.466;2023-02-08T07:12:58;22.77;;;11.00;;
68097;SDS011;54886;47.036;15.466;2023-02-08T07:15:24;21.45;;;10.85;;
68097;SDS011;54886;47.036;15.466;2023-02-08T07:17:50;22.38;;;11.18;;
68097;SDS011;54886;47.036;15.466;2023-02-08T07:20:15;19.67;;;10.57;;
68097;SDS011;54886;47.036;15.466;2023-02-08T07:22:41;23.80;;;10.93;;
68097;SDS011;54886;47.036;15.466;2023-02-08T07:25:07;19.77;;;9.95;;
68097;SDS011;54886;47.036;15.466;2023-02-08T07:27:33;18.92;;;8.23;;
68097;SDS011;54886;47.036;15.466;2023-02-08T07:29:59;16.63;;;8.23;;
68097;SDS011;54886;47.036;15.466;2023-02-08T07:32:25;19.27;;;8.18;;
68097;SDS011;54886;47.036;15.466;2023-02-08T07:34:50;14.93;;;8.32;;
68097;SDS011;54886;47.036;15.466;2023-02-08T07:37:18;15.38;;;8.48;;
68097;SDS011;54886;47.036;15.466;2023-02-08T07:39:46;17.10;;;7.72;;
68097;SDS011;54886;47.036;15.466;2023-02-08T07:42:11;15.98;;;7.47;;
68097;SDS011;54886;47.036;15.466;2023-02-08T07:44:39;20.05;;;7.75;;
68097;SDS011;54886;47.036;15.466;2023-02-08T07:47:04;18.70;;;8.48;;
68097;SDS011;54886;47.036;15.466;2023-02-08T07:49:31;18.80;;;7.85;;
68097;SDS011;54886;47.036;15.466;2023-02-08T07:51:57;19.67;;;8.20;;
68097;SDS011;54886;47.036;15.466;2023-02-08T07:54:26;17.88;;;8.15;;
68097;SDS011;54886;47.036;15.466;2023-02-08T07:56:52;15.63;;;7.57;;
68097;SDS011;54886;47.036;15.466;2023-02-08T07:59:18;17.08;;;7.90;;
68097;SDS011;54886;47.036;15.466;2023-02-08T08:01:45;14.77;;;7.80;;
68097;SDS011;54886;47.036;15.466;2023-02-08T08:04:11;15.40;;;7.40;;
68097;SDS011;54886;47.036;15.466;2023-02-08T08:06:36;14.70;;;7.43;;
68097;SDS011;54886;47.036;15.466;2023-02-08T08:09:02;19.70;;;8.27;;
68097;SDS011;54886;47.036;15.466;2023-02-08T08:11:27;19.55;;;8.02;;
68097;SDS011;54886;47.036;15.466;2023-02-08T08:13:53;16.20;;;8.20;;
68097;SDS011;54886;47.036;15.466;2023-02-08T08:16:18;16.60;;;8.68;;
68097;SDS011;54886;47.036;15.466;2023-02-08T08:18:44;17.17;;;8.55;;
68097;SDS011;54886;47.036;15.466;2023-02-08T08:21:10;23.02;;;8.85;;
68097;SDS011;54886;47.036;15.466;2023-02-08T08:23:43;16.58;;;8.07;;
68097;SDS011;54886;47.036;15.466;2023-02-08T08:26:10;17.52;;;8.90;;
68097;SDS011;54886;47.036;15.466;2023-02-08T08:28:38;16.73;;;8.30;;
68097;SDS011;54886;47.036;15.466;2023-02-08T08:31:07;18.67;;;9.00;;
68097;SDS011;54886;47.036;15.466;2023-02-08T08:33:35;18.83;;;9.55;;
68097;SDS011;54886;47.036;15.466;2023-02-08T08:36:00;18.77;;;8.93;;
68097;SDS011;54886;47.036;15.466;2023-02-08T08:38:25;19.00;;;9.07;;
68097;SDS011;54886;47.036;15.466;2023-02-08T08:40:51;16.40;;;8.40;;
68097;SDS011;54886;47.036;15.466;2023-02-08T08:43:16;20.92;;;9.23;;
68097;SDS011;54886;47.036;15.466;2023-02-08T08:45:44;26.77;;;10.88;;
68097;SDS011;54886;47.036;15.466;2023-02-08T08:48:09;22.70;;;9.98;;
68097;SDS011;54886;47.036;15.466;2023-02-08T08:50:35;24.33;;;9.82;;
68097;SDS011;54886;47.036;15.466;2023-02-08T08:53:00;24.95;;;12.13;;
68097;SDS011;54886;47.036;15.466;2023-02-08T08:55:26;22.52;;;10.68;;
68097;SDS011;54886;47.036;15.466;2023-02-08T08:57:52;22.65;;;10.90;;
68097;SDS011;54886;47.036;15.466;2023-02-08T09:00:17;20.73;;;9.80;;
68097;SDS011;54886;47.036;15.466;2023-02-08T09:02:43;19.92;;;10.80;;
68097;SDS011;54886;47.036;15.466;2023-02-08T09:05:08;20.63;;;11.00;;
68097;SDS011;54886;47.036;15.466;2023-02-08T09:07:34;19.20;;;10.00;;
68097;SDS011;54886;47.036;15.466;2023-02-08T09:09:59;22.70;;;11.07;;
68097;SDS011;54886;47.036;15.466;2023-02-08T09:12:25;20.95;;;9.80;;
68097;SDS011;54886;47.036;15.466;2023-02-08T09:14:53;20.00;;;10.27;;
68097;SDS011;54886;47.036;15.466;2023-02-08T09:17:18;21.90;;;11.15;;
68097;SDS011;54886;47.036;15.466;2023-02-08T09:19:44;20.10;;;10.10;;
68097;SDS011;54886;47.036;15.466;2023-02-08T09:22:11;25.23;;;10.85;;
68097;SDS011;54886;47.036;15.466;2023-02-08T09:24:39;22.33;;;10.15;;
68097;SDS011;54886;47.036;15.466;2023-02-08T09:27:04;20.23;;;10.45;;
68097;SDS011;54886;47.036;15.466;2023-02-08T09:29:32;20.30;;;10.50;;
68097;SDS011;54886;47.036;15.466;2023-02-08T09:31:58;21.95;;;9.73;;
68097;SDS011;54886;47.036;15.466;2023-02-08T09:34:24;19.45;;;9.75;;
68097;SDS011;54886;47.036;15.466;2023-02-08T09:36:49;18.67;;;9.57;;
68097;SDS011;54886;47.036;15.466;2023-02-08T09:39:24;21.17;;;10.80;;
68097;SDS011;54886;47.036;15.466;2023-02-08T09:42:09;18.98;;;9.60;;
68097;SDS011;54886;47.036;15.466;2023-02-08T09:47:47;19.40;;;9.32;;
68097;SDS011;54886;47.036;15.466;2023-02-08T09:50:32;21.58;;;9.90;;
68097;SDS011;54886;47.036;15.466;2023-02-08T09:53:12;23.80;;;10.35;;
68097;SDS011;54886;47.036;15.466;2023-02-08T09:55:42;20.67;;;9.07;;
68097;SDS011;54886;47.036;15.466;2023-02-08T09:58:22;20.42;;;9.90;;
68097;SDS011;54886;47.036;15.466;2023-02-08T10:00:49;19.42;;;10.07;;
68097;SDS011;54886;47.036;15.466;2023-02-08T10:03:36;20.77;;;9.55;;
68097;SDS011;54886;47.036;15.466;2023-02-08T10:06:04;20.65;;;9.93;;
68097;SDS011;54886;47.036;15.466;2023-02-08T10:08:32;17.35;;;9.02;;
68097;SDS011;54886;47.036;15.466;2023-02-08T10:16:43;20.65;;;8.88;;
68097;SDS011;54886;47.036;15.466;2023-02-08T10:27:28;20.55;;;9.20;;
68097;SDS011;54886;47.036;15.466;2023-02-08T10:30:18;19.25;;;9.98;;
68097;SDS011;54886;47.036;15.466;2023-02-08T10:33:02;18.42;;;9.48;;
68097;SDS011;54886;47.036;15.466;2023-02-08T10:35:40;20.73;;;10.40;;
68097;SDS011;54886;47.036;15.466;2023-02-08T10:40:44;19.92;;;10.63;;
68097;SDS011;54886;47.036;15.466;2023-02-08T10:48:28;21.15;;;9.95;;
68097;SDS011;54886;47.036;15.466;2023-02-08T10:50:56;18.40;;;9.43;;
68097;SDS011;54886;47.036;15.466;2023-02-08T10:53:21;22.88;;;10.07;;
68097;SDS011;54886;47.036;15.466;2023-02-08T10:55:47;19.38;;;10.27;;
68097;SDS011;54886;47.036;15.466;2023-02-08T10:58:21;17.77;;;8.95;;
68097;SDS011;54886;47.036;15.466;2023-02-08T11:00:56;16.88;;;8.48;;
68097;SDS011;54886;47.036;15.466;2023-02-08T11:03:26;18.30;;;9.32;;
68097;SDS011;54886;47.036;15.466;2023-02-08T11:05:53;18.48;;;9.70;;
68097;SDS011;54886;47.036;15.466;2023-02-08T11:08:22;18.65;;;8.27;;
68097;SDS011;54886;47.036;15.466;2023-02-08T11:11:08;19.75;;;9.30;;
68097;SDS011;54886;47.036;15.466;2023-02-08T11:13:38;18.70;;;9.48;;
68097;SDS011;54886;47.036;15.466;2023-02-08T11:16:11;21.55;;;9.75;;
68097;SDS011;54886;47.036;15.466;2023-02-08T11:18:54;20.20;;;9.45;;
68097;SDS011;54886;47.036;15.466;2023-02-08T11:21:30;20.95;;;10.02;;
68097;SDS011;54886;47.036;15.466;2023-02-08T11:23:59;22.60;;;9.90;;
68097;SDS011;54886;47.036;15.466;2023-02-08T11:26:32;19.60;;;10.07;;
68097;SDS011;54886;47.036;15.466;2023-02-08T11:29:12;16.90;;;9.68;;
68097;SDS011;54886;47.036;15.466;2023-02-08T11:37:02;20.42;;;9.85;;
68097;SDS011;54886;47.036;15.466;2023-02-08T11:39:38;19.35;;;9.63;;
68097;SDS011;54886;47.036;15.466;2023-02-08T11:42:06;19.35;;;9.82;;
68097;SDS011;54886;47.036;15.466;2023-02-08T11:44:35;19.52;;;9.68;;
68097;SDS011;54886;47.036;15.466;2023-02-08T11:47:07;21.08;;;10.57;;
68097;SDS011;54886;47.036;15.466;2023-02-08T11:49:43;19.50;;;9.02;;
68097;SDS011;54886;47.036;15.466;2023-02-08T11:54:49;17.70;;;9.15;;
68097;SDS011;54886;47.036;15.466;2023-02-08T11:57:17;18.15;;;9.57;;
68097;SDS011;54886;47.036;15.466;2023-02-08T12:00:09;18.20;;;9.27;;
68097;SDS011;54886;47.036;15.466;2023-02-08T12:02:42;17.75;;;9.10;;
68097;SDS011;54886;47.036;15.466;2023-02-08T12:05:12;19.77;;;9.20;;
68097;SDS011;54886;47.036;15.466;2023-02-08T12:08:03;18.67;;;9.77;;
68097;SDS011;54886;47.036;15.466;2023-02-08T12:16:36;17.05;;;8.82;;
68097;SDS011;54886;47.036;15.466;2023-02-08T12:22:09;20.42;;;9.23;;
68097;SDS011;54886;47.036;15.466;2023-02-08T12:29:45;16.47;;;8.47;;
68097;SDS011;54886;47.036;15.466;2023-02-08T12:41:17;18.95;;;9.02;;
68097;SDS011;54886;47.036;15.466;2023-02-08T12:46:21;17.35;;;7.78;;
68097;SDS011;54886;47.036;15.466;2023-02-08T12:57:02;16.13;;;8.00;;
68097;SDS011;54886;47.036;15.466;2023-02-08T12:59:34;15.65;;;7.82;;
68097;SDS011;54886;47.036;15.466;2023-02-08T13:02:11;17.63;;;8.00;;
68097;SDS011;54886;47.036;15.466;2023-02-08T13:04:40;17.38;;;9.05;;
68097;SDS011;54886;47.036;15.466;2023-02-08T13:07:29;16.27;;;7.95;;
68097;SDS011;54886;47.036;15.466;2023-02-08T13:12:27;14.15;;;6.75;;
68097;SDS011;54886;47.036;15.466;2023-02-08T13:15:28;13.45;;;7.10;;
68097;SDS011;54886;47.036;15.466;2023-02-08T13:18:13;15.32;;;7.30;;
68097;SDS011;54886;47.036;15.466;2023-02-08T13:20:46;16.05;;;7.47;;
68097;SDS011;54886;47.036;15.466;2023-02-08T13:26:15;14.93;;;7.45;;
68097;SDS011;54886;47.036;15.466;2023-02-08T13:28:51;15.15;;;7.50;;
68097;SDS011;54886;47.036;15.466;2023-02-08T13:31:31;13.98;;;7.07;;
68097;SDS011;54886;47.036;15.466;2023-02-08T13:34:06;14.68;;;6.68;;
68097;SDS011;54886;47.036;15.466;2023-02-08T13:36:48;13.02;;;6.70;;
68097;SDS011;54886;47.036;15.466;2023-02-08T13:42:00;13.27;;;6.38;;
68097;SDS011;54886;47.036;15.466;2023-02-08T13:44:31;15.40;;;7.30;;
68097;SDS011;54886;47.036;15.466;2023-02-08T13:46:59;14.68;;;6.43;;
68097;SDS011;54886;47.036;15.466;2023-02-08T13:57:58;12.20;;;5.95;;
68097;SDS011;54886;47.036;15.466;2023-02-08T14:00:29;12.50;;;6.47;;
68097;SDS011;54886;47.036;15.466;2023-02-08T14:08:20;13.30;;;6.38;;
68097;SDS011;54886;47.036;15.466;2023-02-08T14:10:49;14.52;;;5.82;;
68097;SDS011;54886;47.036;15.466;2023-02-08T14:13:28;12.18;;;6.25;;
68097;SDS011;54886;47.036;15.466;2023-02-08T14:18:51;11.52;;;6.05;;
68097;SDS011;54886;47.036;15.466;2023-02-08T14:21:25;11.93;;;6.22;;
68097;SDS011;54886;47.036;15.466;2023-02-08T14:23:58;11.55;;;6.05;;
68097;SDS011;54886;47.036;15.466;2023-02-08T14:26:32;11.73;;;6.13;;
68097;SDS011;54886;47.036;15.466;2023-02-08T14:29:01;13.27;;;6.15;;
68097;SDS011;54886;47.036;15.466;2023-02-08T14:31:36;10.90;;;6.13;;
68097;SDS011;54886;47.036;15.466;2023-02-08T14:34:04;13.25;;;6.22;;
68097;SDS011;54886;47.036;15.466;2023-02-08T14:36:31;13.52;;;6.25;;
68097;SDS011;54886;47.036;15.466;2023-02-08T14:41:44;13.88;;;6.50;;
68097;SDS011;54886;47.036;15.466;2023-02-08T14:49:47;10.77;;;5.07;;
68097;SDS011;54886;47.036;15.466;2023-02-08T14:52:14;10.23;;;4.97;;
68097;SDS011;54886;47.036;15.466;2023-02-08T14:59:52;10.73;;;5.03;;
68097;SDS011;54886;47.036;15.466;2023-02-08T15:02:23;10.80;;;5.18;;
68097;SDS011;54886;47.036;15.466;2023-02-08T15:04:50;15.80;;;7.43;;
68097;SDS011;54886;47.036;15.466;2023-02-08T15:09:54;10.55;;;5.20;;
68097;SDS011;54886;47.036;15.466;2023-02-08T15:12:27;11.55;;;5.88;;
68097;SDS011;54886;47.036;15.466;2023-02-08T15:14:57;13.75;;;6.53;;
68097;SDS011;54886;47.036;15.466;2023-02-08T15:19:49;11.43;;;5.70;;
68097;SDS011;54886;47.036;15.466;2023-02-08T15:24:51;11.45;;;5.60;;
68097;SDS011;54886;47.036;15.466;2023-02-08T15:27:25;12.93;;;5.93;;
68097;SDS011;54886;47.036;15.466;2023-02-08T15:29:55;10.63;;;5.55;;
68097;SDS011;54886;47.036;15.466;2023-02-08T15:32:21;11.68;;;6.05;;
68097;SDS011;54886;47.036;15.466;2023-02-08T15:34:55;12.15;;;5.43;;
68097;SDS011;54886;47.036;15.466;2023-02-08T15:37:23;12.15;;;5.25;;
68097;SDS011;54886;47.036;15.466;2023-02-08T15:39:50;12.73;;;5.80;;
68097;SDS011;54886;47.036;15.466;2023-02-08T15:42:22;11.43;;;5.50;;
68097;SDS011;54886;47.036;15.466;2023-02-08T15:44:50;9.70;;;5.07;;
68097;SDS011;54886;47.036;15.466;2023-02-08T15:47:37;11.02;;;5.25;;
68097;SDS011;54886;47.036;15.466;2023-02-08T15:50:04;11.38;;;5.93;;
68097;SDS011;54886;47.036;15.466;2023-02-08T15:52:33;10.98;;;5.95;;
68097;SDS011;54886;47.036;15.466;2023-02-08T15:55:00;10.43;;;4.95;;
68097;SDS011;54886;47.036;15.466;2023-02-08T16:00:30;11.75;;;6.13;;
68097;SDS011;54886;47.036;15.466;2023-02-08T16:03:00;10.73;;;6.00;;
68097;SDS011;54886;47.036;15.466;2023-02-08T16:05:31;11.52;;;6.00;;
68097;SDS011;54886;47.036;15.466;2023-02-08T16:07:58;15.40;;;6.20;;
68097;SDS011;54886;47.036;15.466;2023-02-08T16:12:56;12.02;;;6.40;;
68097;SDS011;54886;47.036;15.466;2023-02-08T16:15:40;12.25;;;6.38;;
68097;SDS011;54886;47.036;15.466;2023-02-08T16:21:03;10.52;;;5.80;;
68097;SDS011;54886;47.036;15.466;2023-02-08T16:23:31;15.85;;;6.35;;
68097;SDS011;54886;47.036;15.466;2023-02-08T16:26:12;13.73;;;6.65;;
68097;SDS011;54886;47.036;15.466;2023-02-08T16:28:50;12.57;;;6.25;;
68097;SDS011;54886;47.036;15.466;2023-02-08T16:31:24;12.90;;;6.00;;
68097;SDS011;54886;47.036;15.466;2023-02-08T16:36:30;12.10;;;6.30;;
68097;SDS011;54886;47.036;15.466;2023-02-08T16:44:29;15.30;;;7.07;;
68097;SDS011;54886;47.036;15.466;2023-02-08T16:46:56;14.07;;;6.75;;
68097;SDS011;54886;47.036;15.466;2023-02-08T16:49:22;14.88;;;7.10;;
68097;SDS011;54886;47.036;15.466;2023-02-08T16:51:48;14.35;;;7.57;;
68097;SDS011;54886;47.036;15.466;2023-02-08T16:54:18;15.35;;;8.15;;
68097;SDS011;54886;47.036;15.466;2023-02-08T17:01:39;18.40;;;7.93;;
68097;SDS011;54886;47.036;15.466;2023-02-08T17:04:08;13.65;;;7.05;;
68097;SDS011;54886;47.036;15.466;2023-02-08T17:06:34;15.02;;;8.18;;
68097;SDS011;54886;47.036;15.466;2023-02-08T17:09:02;12.98;;;7.28;;
68097;SDS011;54886;47.036;15.466;2023-02-08T17:11:29;15.80;;;7.93;;
68097;SDS011;54886;47.036;15.466;2023-02-08T17:13:55;15.88;;;8.05;;
68097;SDS011;54886;47.036;15.466;2023-02-08T17:16:23;15.70;;;8.45;;
68097;SDS011;54886;47.036;15.466;2023-02-08T17:18:50;17.15;;;8.55;;
68097;SDS011;54886;47.036;15.466;2023-02-08T17:21:16;16.95;;;8.80;;
68097;SDS011;54886;47.036;15.466;2023-02-08T17:23:42;19.58;;;9.10;;
68097;SDS011;54886;47.036;15.466;2023-02-08T17:28:40;17.17;;;8.00;;
68097;SDS011;54886;47.036;15.466;2023-02-08T17:31:08;19.38;;;9.55;;
68097;SDS011;54886;47.036;15.466;2023-02-08T17:36:04;15.02;;;8.07;;
68097;SDS011;54886;47.036;15.466;2023-02-08T17:38:30;16.50;;;8.63;;
68097;SDS011;54886;47.036;15.466;2023-02-08T17:40:55;17.27;;;8.50;;
68097;SDS011;54886;47.036;15.466;2023-02-08T17:43:21;16.48;;;9.25;;
68097;SDS011;54886;47.036;15.466;2023-02-08T17:45:47;16.20;;;9.02;;